Aeroporto :
LOGIN :

Iscrizione | Disclaimer

   EN    FR    IT 

 










Sommario :    VFR   VFR Marginale   IFR   IFR Intensivo   IFR Molto Intensivo
Visibilità : 
Base nubi : 
>= 8 km
>= 3000ft
5 / 8 km
1000 / 3000 ft
1500m / 5 km
500 / 1000 ft
800 / 1500m
200 / 500 ft
< 800m
< 200 ft
Simboli :   Temporali  Nebbia  Neve Forte  Precipitazioni Forti  Vento > 20 kt
SIGMETs :   Varie  Temporali  Ghiacco  Turbolenza  Onda orograficha  Ceneri Vulcaniche






- Altitudine del aeroporto : 659 ft
- Codice IATA : LGG


EBLG - Liège

ULTIMO METAR :
  • 141850Z 11005KT 060V130 9999 SCT022 05/03 Q1002 NOSIG

METARs OBSOLETI :
  • 141820Z 07004KT 9999 -DZ BKN019 05/03 Q1002 NOSIG
  • 141750Z 09003KT 9999 FEW022 05/03 Q1002 NOSIG
  • 141720Z VRB02KT 9999 FEW019 05/02 Q1002 NOSIG
  • 141650Z 17004KT 9999 SCT019 05/02 Q1002 NOSIG
  • 141620Z 15004KT 110V170 9999 BKN019 06/02 Q1001 NOSIG
  • 141550Z 16005KT 120V190 9999 BKN019 06/02 Q1001 NOSIG

TAF TAF EBLG
Valido dal 14 a 18 ore il 16 a 00 ore UTC


141710Z 1418/1524 06005KT 9999 SCT018
PROB40
TEMPO 1500/1509 4000 BR
TEMPO 1503/1509 BKN005



MetMap, La meteo Aeronautica in un colpo d'occhio ! - Copyright ORBIFLY Dicembre 2007 - Disclaimer

ORBIFLY MET'MAP TEAM :

Programmazione e sviluppo : Alexandra Zaïnal
Concezione e sviluppo : Baudouin d'Aumeries
Co-Programmazione e sviluppo : Marc-Olivier Méhu
Supporto tecnico e logistico : Manuel Goepfert
Aiuto per la traduzione : Arnaldo La Scala

Contatto : metmap@orbifly.com




FONTI E CREDITI :

   NOAA